sensor_id;sensor_type;location;lat;lon;timestamp;P1;durP1;ratioP1;P2;durP2;ratioP2
37169;SDS011;23062;13.952;100.608;2023-06-22T00:02:39;8.00;;;5.00;;
37169;SDS011;23062;13.952;100.608;2023-06-22T00:07:05;8.00;;;6.00;;
37169;SDS011;23062;13.952;100.608;2023-06-22T00:11:34;7.00;;;5.00;;
37169;SDS011;23062;13.952;100.608;2023-06-22T00:16:04;9.00;;;6.00;;
37169;SDS011;23062;13.952;100.608;2023-06-22T00:20:31;10.00;;;7.00;;
37169;SDS011;23062;13.952;100.608;2023-06-22T00:24:59;10.00;;;7.00;;
37169;SDS011;23062;13.952;100.608;2023-06-22T00:29:25;9.00;;;6.00;;
37169;SDS011;23062;13.952;100.608;2023-06-22T00:33:59;11.00;;;8.00;;
37169;SDS011;23062;13.952;100.608;2023-06-22T00:38:25;9.00;;;7.00;;
37169;SDS011;23062;13.952;100.608;2023-06-22T00:42:51;10.00;;;7.00;;
37169;SDS011;23062;13.952;100.608;2023-06-22T00:47:17;11.00;;;8.00;;
37169;SDS011;23062;13.952;100.608;2023-06-22T00:51:51;10.00;;;7.00;;
37169;SDS011;23062;13.952;100.608;2023-06-22T00:56:18;9.00;;;6.00;;
37169;SDS011;23062;13.952;100.608;2023-06-22T01:00:45;9.00;;;6.00;;
37169;SDS011;23062;13.952;100.608;2023-06-22T01:05:14;7.00;;;5.00;;
37169;SDS011;23062;13.952;100.608;2023-06-22T01:09:51;8.00;;;5.00;;
37169;SDS011;23062;13.952;100.608;2023-06-22T01:23:56;7.00;;;5.00;;
37169;SDS011;23062;13.952;100.608;2023-06-22T01:28:41;8.00;;;6.00;;
37169;SDS011;23062;13.952;100.608;2023-06-22T01:33:14;10.00;;;7.00;;
37169;SDS011;23062;13.952;100.608;2023-06-22T01:37:49;7.00;;;5.00;;
37169;SDS011;23062;13.952;100.608;2023-06-22T01:42:16;7.00;;;5.00;;
37169;SDS011;23062;13.952;100.608;2023-06-22T01:46:47;8.00;;;6.00;;
37169;SDS011;23062;13.952;100.608;2023-06-22T01:51:17;13.00;;;10.00;;
37169;SDS011;23062;13.952;100.608;2023-06-22T01:55:43;11.00;;;8.00;;
37169;SDS011;23062;13.952;100.608;2023-06-22T02:00:12;16.00;;;11.00;;
37169;SDS011;23062;13.952;100.608;2023-06-22T02:04:51;13.00;;;10.00;;
37169;SDS011;23062;13.952;100.608;2023-06-22T02:09:17;11.00;;;8.00;;
37169;SDS011;23062;13.952;100.608;2023-06-22T02:13:53;11.00;;;8.00;;
37169;SDS011;23062;13.952;100.608;2023-06-22T02:18:20;11.00;;;8.00;;
37169;SDS011;23062;13.952;100.608;2023-06-22T02:22:46;13.00;;;10.00;;
37169;SDS011;23062;13.952;100.608;2023-06-22T02:27:13;20.00;;;14.00;;
37169;SDS011;23062;13.952;100.608;2023-06-22T02:31:39;22.00;;;16.00;;
37169;SDS011;23062;13.952;100.608;2023-06-22T02:36:13;12.00;;;8.00;;
37169;SDS011;23062;13.952;100.608;2023-06-22T02:40:49;107.00;;;85.00;;
37169;SDS011;23062;13.952;100.608;2023-06-22T02:45:15;2601.00;;;1830.27;;
37169;SDS011;23062;13.952;100.608;2023-06-22T02:49:43;50.00;;;38.00;;
37169;SDS011;23062;13.952;100.608;2023-06-22T02:54:10;15.00;;;10.00;;
37169;SDS011;23062;13.952;100.608;2023-06-22T02:58:39;8.00;;;6.00;;
37169;SDS011;23062;13.952;100.608;2023-06-22T03:03:08;10.00;;;7.00;;
37169;SDS011;23062;13.952;100.608;2023-06-22T03:07:43;8.00;;;5.00;;
37169;SDS011;23062;13.952;100.608;2023-06-22T03:12:10;8.00;;;6.00;;
37169;SDS011;23062;13.952;100.608;2023-06-22T03:16:36;6.00;;;4.00;;
37169;SDS011;23062;13.952;100.608;2023-06-22T03:21:03;7.00;;;5.00;;
37169;SDS011;23062;13.952;100.608;2023-06-22T03:25:35;7.00;;;5.00;;
37169;SDS011;23062;13.952;100.608;2023-06-22T03:30:02;7.00;;;5.00;;
37169;SDS011;23062;13.952;100.608;2023-06-22T03:34:32;6.00;;;4.00;;
37169;SDS011;23062;13.952;100.608;2023-06-22T03:39:09;7.00;;;4.00;;
37169;SDS011;23062;13.952;100.608;2023-06-22T03:43:35;9.00;;;6.00;;
37169;SDS011;23062;13.952;100.608;2023-06-22T03:48:03;7.00;;;5.00;;
37169;SDS011;23062;13.952;100.608;2023-06-22T03:52:29;8.00;;;6.00;;
37169;SDS011;23062;13.952;100.608;2023-06-22T03:56:56;8.00;;;6.00;;
37169;SDS011;23062;13.952;100.608;2023-06-22T04:01:24;8.00;;;6.00;;
37169;SDS011;23062;13.952;100.608;2023-06-22T04:05:53;15.00;;;11.00;;
37169;SDS011;23062;13.952;100.608;2023-06-22T04:10:20;9.00;;;7.00;;
37169;SDS011;23062;13.952;100.608;2023-06-22T04:14:46;10.00;;;7.00;;
37169;SDS011;23062;13.952;100.608;2023-06-22T04:19:13;8.00;;;6.00;;
37169;SDS011;23062;13.952;100.608;2023-06-22T04:23:40;10.00;;;7.00;;
37169;SDS011;23062;13.952;100.608;2023-06-22T04:28:12;10.00;;;7.00;;
37169;SDS011;23062;13.952;100.608;2023-06-22T04:32:39;12.00;;;8.00;;
37169;SDS011;23062;13.952;100.608;2023-06-22T04:37:05;18.00;;;13.00;;
37169;SDS011;23062;13.952;100.608;2023-06-22T04:41:31;13.00;;;9.00;;
37169;SDS011;23062;13.952;100.608;2023-06-22T04:46:00;11.00;;;8.00;;
37169;SDS011;23062;13.952;100.608;2023-06-22T04:50:33;11.00;;;8.00;;
37169;SDS011;23062;13.952;100.608;2023-06-22T04:55:01;12.00;;;8.00;;
37169;SDS011;23062;13.952;100.608;2023-06-22T04:59:28;12.00;;;9.00;;
37169;SDS011;23062;13.952;100.608;2023-06-22T05:03:57;12.00;;;8.00;;
37169;SDS011;23062;13.952;100.608;2023-06-22T05:08:32;12.00;;;8.00;;
37169;SDS011;23062;13.952;100.608;2023-06-22T05:12:58;9.00;;;6.00;;
37169;SDS011;23062;13.952;100.608;2023-06-22T05:17:33;9.00;;;6.00;;
37169;SDS011;23062;13.952;100.608;2023-06-22T05:22:01;10.00;;;7.00;;
37169;SDS011;23062;13.952;100.608;2023-06-22T05:26:32;9.00;;;6.00;;
37169;SDS011;23062;13.952;100.608;2023-06-22T05:31:01;8.00;;;6.00;;
37169;SDS011;23062;13.952;100.608;2023-06-22T05:35:27;6.00;;;4.00;;
37169;SDS011;23062;13.952;100.608;2023-06-22T05:39:54;7.00;;;5.00;;
37169;SDS011;23062;13.952;100.608;2023-06-22T05:44:20;9.00;;;6.00;;
37169;SDS011;23062;13.952;100.608;2023-06-22T05:48:55;7.00;;;5.00;;
37169;SDS011;23062;13.952;100.608;2023-06-22T05:53:24;10.00;;;7.00;;
37169;SDS011;23062;13.952;100.608;2023-06-22T05:57:51;8.00;;;5.00;;
37169;SDS011;23062;13.952;100.608;2023-06-22T06:02:26;9.00;;;6.00;;
37169;SDS011;23062;13.952;100.608;2023-06-22T06:06:52;8.00;;;5.00;;
37169;SDS011;23062;13.952;100.608;2023-06-22T06:11:25;7.00;;;5.00;;
37169;SDS011;23062;13.952;100.608;2023-06-22T06:15:52;8.00;;;5.00;;
37169;SDS011;23062;13.952;100.608;2023-06-22T06:20:32;9.00;;;6.00;;
37169;SDS011;23062;13.952;100.608;2023-06-22T06:24:58;7.00;;;5.00;;
37169;SDS011;23062;13.952;100.608;2023-06-22T06:29:26;9.00;;;6.00;;
37169;SDS011;23062;13.952;100.608;2023-06-22T06:33:52;10.00;;;7.00;;
37169;SDS011;23062;13.952;100.608;2023-06-22T06:38:19;9.00;;;6.00;;
37169;SDS011;23062;13.952;100.608;2023-06-22T06:42:53;2532.00;;;1831.20;;
37169;SDS011;23062;13.952;100.608;2023-06-22T06:47:20;9.00;;;6.00;;
37169;SDS011;23062;13.952;100.608;2023-06-22T06:51:54;9.00;;;6.00;;
37169;SDS011;23062;13.952;100.608;2023-06-22T06:56:22;7.00;;;5.00;;
37169;SDS011;23062;13.952;100.608;2023-06-22T07:00:56;10.00;;;7.00;;
37169;SDS011;23062;13.952;100.608;2023-06-22T07:05:23;10.00;;;7.00;;
37169;SDS011;23062;13.952;100.608;2023-06-22T07:09:56;9.00;;;6.00;;
37169;SDS011;23062;13.952;100.608;2023-06-22T07:14:25;8.00;;;6.00;;
37169;SDS011;23062;13.952;100.608;2023-06-22T07:18:54;8.00;;;6.00;;
37169;SDS011;23062;13.952;100.608;2023-06-22T07:23:21;8.00;;;6.00;;
37169;SDS011;23062;13.952;100.608;2023-06-22T07:28:01;8.00;;;5.00;;
37169;SDS011;23062;13.952;100.608;2023-06-22T07:32:28;9.00;;;6.00;;
37169;SDS011;23062;13.952;100.608;2023-06-22T07:36:54;7.00;;;5.00;;
37169;SDS011;23062;13.952;100.608;2023-06-22T07:41:29;6.00;;;4.00;;
37169;SDS011;23062;13.952;100.608;2023-06-22T07:46:06;8.00;;;5.00;;
37169;SDS011;23062;13.952;100.608;2023-06-22T07:50:34;6.00;;;4.00;;
37169;SDS011;23062;13.952;100.608;2023-06-22T07:55:04;7.00;;;4.00;;
37169;SDS011;23062;13.952;100.608;2023-06-22T07:59:39;6.00;;;4.00;;
37169;SDS011;23062;13.952;100.608;2023-06-22T08:04:14;6.00;;;4.00;;
37169;SDS011;23062;13.952;100.608;2023-06-22T08:08:39;4.00;;;3.00;;
37169;SDS011;23062;13.952;100.608;2023-06-22T08:13:06;7.00;;;5.00;;
37169;SDS011;23062;13.952;100.608;2023-06-22T08:17:33;7.00;;;5.00;;
37169;SDS011;23062;13.952;100.608;2023-06-22T08:22:01;8.00;;;5.00;;
37169;SDS011;23062;13.952;100.608;2023-06-22T08:26:28;7.00;;;5.00;;
37169;SDS011;23062;13.952;100.608;2023-06-22T08:31:02;5.00;;;3.00;;
37169;SDS011;23062;13.952;100.608;2023-06-22T08:35:32;6.00;;;4.00;;
37169;SDS011;23062;13.952;100.608;2023-06-22T08:40:02;9.00;;;6.00;;
37169;SDS011;23062;13.952;100.608;2023-06-22T08:44:30;9.00;;;6.00;;
37169;SDS011;23062;13.952;100.608;2023-06-22T08:49:04;9.00;;;6.00;;
37169;SDS011;23062;13.952;100.608;2023-06-22T08:53:38;6.00;;;4.00;;
37169;SDS011;23062;13.952;100.608;2023-06-22T08:58:11;8.00;;;6.00;;
37169;SDS011;23062;13.952;100.608;2023-06-22T09:02:39;7.00;;;5.00;;
37169;SDS011;23062;13.952;100.608;2023-06-22T09:07:07;9.00;;;6.00;;
37169;SDS011;23062;13.952;100.608;2023-06-22T09:11:34;11.00;;;8.00;;
37169;SDS011;23062;13.952;100.608;2023-06-22T09:16:00;9.00;;;6.00;;
37169;SDS011;23062;13.952;100.608;2023-06-22T09:20:26;31.00;;;23.00;;
37169;SDS011;23062;13.952;100.608;2023-06-22T09:24:52;2090.00;;;1586.00;;
37169;SDS011;23062;13.952;100.608;2023-06-22T09:29:20;2549.00;;;1965.00;;
37169;SDS011;23062;13.952;100.608;2023-06-22T09:33:54;2507.00;;;1988.00;;
37169;SDS011;23062;13.952;100.608;2023-06-22T09:38:25;2652.00;;;1998.00;;
37169;SDS011;23062;13.952;100.608;2023-06-22T09:42:52;2635.00;;;2011.00;;
37169;SDS011;23062;13.952;100.608;2023-06-22T09:47:19;2639.00;;;2101.00;;
37169;SDS011;23062;13.952;100.608;2023-06-22T09:51:48;2650.00;;;2036.00;;
37169;SDS011;23062;13.952;100.608;2023-06-22T09:56:21;2683.00;;;2029.00;;
37169;SDS011;23062;13.952;100.608;2023-06-22T10:00:48;2527.00;;;1983.00;;
37169;SDS011;23062;13.952;100.608;2023-06-22T10:05:21;2654.00;;;2007.00;;
37169;SDS011;23062;13.952;100.608;2023-06-22T10:09:50;2581.00;;;2053.00;;
37169;SDS011;23062;13.952;100.608;2023-06-22T10:14:17;2615.00;;;2065.00;;
37169;SDS011;23062;13.952;100.608;2023-06-22T10:18:44;2749.00;;;2046.00;;
37169;SDS011;23062;13.952;100.608;2023-06-22T10:23:20;2565.00;;;2027.00;;
37169;SDS011;23062;13.952;100.608;2023-06-22T10:27:53;2640.00;;;2041.00;;
37169;SDS011;23062;13.952;100.608;2023-06-22T10:32:20;2689.00;;;2038.00;;
37169;SDS011;23062;13.952;100.608;2023-06-22T10:36:49;2652.00;;;2033.00;;
37169;SDS011;23062;13.952;100.608;2023-06-22T10:41:17;2543.00;;;2032.00;;
37169;SDS011;23062;13.952;100.608;2023-06-22T10:45:46;2678.00;;;2033.00;;
37169;SDS011;23062;13.952;100.608;2023-06-22T10:50:14;2578.00;;;2023.00;;
37169;SDS011;23062;13.952;100.608;2023-06-22T10:54:48;2578.00;;;2028.00;;
37169;SDS011;23062;13.952;100.608;2023-06-22T10:59:16;2537.00;;;2037.00;;
37169;SDS011;23062;13.952;100.608;2023-06-22T11:03:48;2641.00;;;2055.00;;
37169;SDS011;23062;13.952;100.608;2023-06-22T11:08:17;2709.00;;;2042.00;;
37169;SDS011;23062;13.952;100.608;2023-06-22T11:12:45;2752.00;;;2056.00;;
37169;SDS011;23062;13.952;100.608;2023-06-22T11:17:15;2627.00;;;2063.00;;
37169;SDS011;23062;13.952;100.608;2023-06-22T11:21:45;2725.00;;;2067.00;;
37169;SDS011;23062;13.952;100.608;2023-06-22T11:26:18;2687.00;;;2058.00;;
37169;SDS011;23062;13.952;100.608;2023-06-22T11:30:45;2716.00;;;2054.00;;
37169;SDS011;23062;13.952;100.608;2023-06-22T11:35:12;2710.00;;;2057.00;;
37169;SDS011;23062;13.952;100.608;2023-06-22T11:39:43;2758.00;;;2070.00;;
37169;SDS011;23062;13.952;100.608;2023-06-22T11:44:13;2758.00;;;2054.00;;
37169;SDS011;23062;13.952;100.608;2023-06-22T11:48:43;2589.00;;;2066.00;;
37169;SDS011;23062;13.952;100.608;2023-06-22T11:53:12;2654.00;;;2058.00;;
37169;SDS011;23062;13.952;100.608;2023-06-22T11:57:57;2758.00;;;2056.00;;
37169;SDS011;23062;13.952;100.608;2023-06-22T12:02:22;2614.00;;;2053.00;;
37169;SDS011;23062;13.952;100.608;2023-06-22T12:06:49;2682.00;;;2045.00;;
37169;SDS011;23062;13.952;100.608;2023-06-22T12:11:18;2589.00;;;2041.00;;
37169;SDS011;23062;13.952;100.608;2023-06-22T12:15:52;2595.00;;;2043.00;;
37169;SDS011;23062;13.952;100.608;2023-06-22T12:20:19;2717.00;;;2045.00;;
37169;SDS011;23062;13.952;100.608;2023-06-22T12:24:47;2648.00;;;2055.00;;
37169;SDS011;23062;13.952;100.608;2023-06-22T12:29:20;2551.00;;;2049.00;;
37169;SDS011;23062;13.952;100.608;2023-06-22T12:33:47;2581.00;;;2045.00;;
37169;SDS011;23062;13.952;100.608;2023-06-22T12:38:15;2537.00;;;2031.00;;
37169;SDS011;23062;13.952;100.608;2023-06-22T12:42:42;2699.00;;;2033.00;;
37169;SDS011;23062;13.952;100.608;2023-06-22T12:47:11;2553.00;;;2037.00;;
37169;SDS011;23062;13.952;100.608;2023-06-22T12:51:42;2618.00;;;2029.00;;
37169;SDS011;23062;13.952;100.608;2023-06-22T12:56:10;2605.00;;;2000.00;;
37169;SDS011;23062;13.952;100.608;2023-06-22T13:00:38;2645.00;;;1992.00;;
37169;SDS011;23062;13.952;100.608;2023-06-22T13:05:06;2471.00;;;1984.00;;
37169;SDS011;23062;13.952;100.608;2023-06-22T13:09:33;2618.00;;;1963.00;;
37169;SDS011;23062;13.952;100.608;2023-06-22T13:14:07;2583.00;;;2005.00;;
37169;SDS011;23062;13.952;100.608;2023-06-22T13:18:33;2582.00;;;2007.00;;
37169;SDS011;23062;13.952;100.608;2023-06-22T13:23:07;2485.00;;;1981.00;;
37169;SDS011;23062;13.952;100.608;2023-06-22T13:27:35;2589.00;;;1962.00;;
37169;SDS011;23062;13.952;100.608;2023-06-22T13:32:03;2489.00;;;1924.00;;
37169;SDS011;23062;13.952;100.608;2023-06-22T13:36:30;2637.00;;;1979.00;;
37169;SDS011;23062;13.952;100.608;2023-06-22T13:41:00;2618.00;;;1960.00;;
37169;SDS011;23062;13.952;100.608;2023-06-22T13:45:28;2512.00;;;1982.00;;
37169;SDS011;23062;13.952;100.608;2023-06-22T13:49:55;2637.00;;;1991.00;;
37169;SDS011;23062;13.952;100.608;2023-06-22T13:54:22;2614.00;;;2002.00;;
37169;SDS011;23062;13.952;100.608;2023-06-22T13:58:51;2644.00;;;2007.00;;
37169;SDS011;23062;13.952;100.608;2023-06-22T14:03:18;2684.00;;;2020.00;;
37169;SDS011;23062;13.952;100.608;2023-06-22T14:07:47;2638.00;;;2024.00;;
37169;SDS011;23062;13.952;100.608;2023-06-22T14:12:19;2694.00;;;2026.00;;
37169;SDS011;23062;13.952;100.608;2023-06-22T14:16:46;2669.00;;;2037.00;;
37169;SDS011;23062;13.952;100.608;2023-06-22T14:21:13;2645.00;;;2048.00;;
37169;SDS011;23062;13.952;100.608;2023-06-22T14:25:40;2758.00;;;2059.00;;
37169;SDS011;23062;13.952;100.608;2023-06-22T14:30:07;2636.00;;;2072.00;;
37169;SDS011;23062;13.952;100.608;2023-06-22T14:34:35;2698.00;;;2081.00;;
37169;SDS011;23062;13.952;100.608;2023-06-22T14:39:12;2794.00;;;2092.00;;
37169;SDS011;23062;13.952;100.608;2023-06-22T14:43:42;2752.00;;;2108.00;;
37169;SDS011;23062;13.952;100.608;2023-06-22T14:48:11;2770.00;;;2104.00;;
37169;SDS011;23062;13.952;100.608;2023-06-22T14:52:39;2685.00;;;2105.00;;
37169;SDS011;23062;13.952;100.608;2023-06-22T14:57:05;2704.00;;;2086.00;;
37169;SDS011;23062;13.952;100.608;2023-06-22T15:01:40;2690.00;;;2101.00;;
37169;SDS011;23062;13.952;100.608;2023-06-22T15:06:07;2677.00;;;2124.00;;
37169;SDS011;23062;13.952;100.608;2023-06-22T15:10:37;2723.00;;;2073.00;;
37169;SDS011;23062;13.952;100.608;2023-06-22T15:15:05;2805.00;;;2088.00;;
37169;SDS011;23062;13.952;100.608;2023-06-22T15:19:39;2608.00;;;2078.00;;
37169;SDS011;23062;13.952;100.608;2023-06-22T15:24:10;2614.00;;;2086.00;;
37169;SDS011;23062;13.952;100.608;2023-06-22T15:28:37;2758.00;;;2087.00;;
37169;SDS011;23062;13.952;100.608;2023-06-22T15:33:05;2726.00;;;2090.00;;
37169;SDS011;23062;13.952;100.608;2023-06-22T15:37:39;2608.00;;;2086.00;;
37169;SDS011;23062;13.952;100.608;2023-06-22T15:42:13;2653.00;;;2087.00;;
37169;SDS011;23062;13.952;100.608;2023-06-22T15:46:40;2600.00;;;2081.00;;
37169;SDS011;23062;13.952;100.608;2023-06-22T15:51:06;2645.00;;;2104.00;;
37169;SDS011;23062;13.952;100.608;2023-06-22T15:55:33;2688.00;;;2091.00;;
37169;SDS011;23062;13.952;100.608;2023-06-22T16:00:00;2613.00;;;2073.00;;
37169;SDS011;23062;13.952;100.608;2023-06-22T16:04:28;2121.00;;;1535.33;;
37169;SDS011;23062;13.952;100.608;2023-06-22T16:08:55;2784.00;;;2094.00;;
37169;SDS011;23062;13.952;100.608;2023-06-22T16:13:29;2667.00;;;2101.00;;
37169;SDS011;23062;13.952;100.608;2023-06-22T16:17:58;2797.00;;;2096.00;;
37169;SDS011;23062;13.952;100.608;2023-06-22T16:22:32;2767.00;;;2108.00;;
37169;SDS011;23062;13.952;100.608;2023-06-22T16:26:59;2666.00;;;2089.00;;
37169;SDS011;23062;13.952;100.608;2023-06-22T16:31:27;2651.00;;;2119.00;;
37169;SDS011;23062;13.952;100.608;2023-06-22T16:36:03;2157.00;;;1537.20;;
37169;SDS011;23062;13.952;100.608;2023-06-22T16:40:32;2759.00;;;2123.00;;
37169;SDS011;23062;13.952;100.608;2023-06-22T16:45:00;2773.00;;;2113.00;;
37169;SDS011;23062;13.952;100.608;2023-06-22T16:49:29;2733.00;;;2118.00;;
37169;SDS011;23062;13.952;100.608;2023-06-22T16:54:05;2081.00;;;1544.67;;
37169;SDS011;23062;13.952;100.608;2023-06-22T16:58:33;2641.00;;;2121.00;;
37169;SDS011;23062;13.952;100.608;2023-06-22T17:03:02;2775.00;;;2108.00;;
37169;SDS011;23062;13.952;100.608;2023-06-22T17:07:30;2769.00;;;2121.00;;
37169;SDS011;23062;13.952;100.608;2023-06-22T17:11:59;2718.00;;;2108.00;;
37169;SDS011;23062;13.952;100.608;2023-06-22T17:16:28;2664.00;;;2109.00;;
37169;SDS011;23062;13.952;100.608;2023-06-22T17:20:57;2715.00;;;2114.00;;
37169;SDS011;23062;13.952;100.608;2023-06-22T17:25:32;2671.00;;;2068.00;;
37169;SDS011;23062;13.952;100.608;2023-06-22T17:30:05;2761.00;;;2091.00;;
37169;SDS011;23062;13.952;100.608;2023-06-22T17:34:37;2633.00;;;2108.00;;
37169;SDS011;23062;13.952;100.608;2023-06-22T17:39:18;2640.00;;;2105.00;;
37169;SDS011;23062;13.952;100.608;2023-06-22T17:43:48;2655.00;;;2105.00;;
37169;SDS011;23062;13.952;100.608;2023-06-22T17:48:22;2661.00;;;2098.00;;
37169;SDS011;23062;13.952;100.608;2023-06-22T17:52:52;2741.00;;;2101.00;;
37169;SDS011;23062;13.952;100.608;2023-06-22T17:57:23;2788.00;;;2108.00;;
37169;SDS011;23062;13.952;100.608;2023-06-22T18:01:51;2739.00;;;2082.00;;
37169;SDS011;23062;13.952;100.608;2023-06-22T18:06:30;2710.00;;;2105.00;;
37169;SDS011;23062;13.952;100.608;2023-06-22T18:11:01;2784.00;;;2091.00;;
37169;SDS011;23062;13.952;100.608;2023-06-22T18:15:29;2724.00;;;2101.00;;
37169;SDS011;23062;13.952;100.608;2023-06-22T18:20:02;2621.00;;;2073.00;;
37169;SDS011;23062;13.952;100.608;2023-06-22T18:24:35;2772.00;;;2079.00;;
37169;SDS011;23062;13.952;100.608;2023-06-22T18:29:05;2745.00;;;2074.00;;
37169;SDS011;23062;13.952;100.608;2023-06-22T18:33:42;2684.00;;;2083.00;;
37169;SDS011;23062;13.952;100.608;2023-06-22T18:38:17;2074.00;;;1541.87;;
37169;SDS011;23062;13.952;100.608;2023-06-22T18:42:47;2767.00;;;2070.00;;
37169;SDS011;23062;13.952;100.608;2023-06-22T18:47:25;2640.00;;;2062.00;;
37169;SDS011;23062;13.952;100.608;2023-06-22T18:56:25;2756.00;;;2084.00;;
37169;SDS011;23062;13.952;100.608;2023-06-22T19:00:52;2647.00;;;2097.00;;
37169;SDS011;23062;13.952;100.608;2023-06-22T19:05:36;2759.00;;;2066.00;;
37169;SDS011;23062;13.952;100.608;2023-06-22T19:15:01;2671.00;;;2062.00;;
37169;SDS011;23062;13.952;100.608;2023-06-22T19:19:36;2609.00;;;2067.00;;
37169;SDS011;23062;13.952;100.608;2023-06-22T19:24:03;2603.00;;;2077.00;;
37169;SDS011;23062;13.952;100.608;2023-06-22T19:28:34;2805.00;;;2088.00;;
37169;SDS011;23062;13.952;100.608;2023-06-22T19:33:13;2684.00;;;2103.00;;
37169;SDS011;23062;13.952;100.608;2023-06-22T19:37:44;2753.00;;;2107.00;;
37169;SDS011;23062;13.952;100.608;2023-06-22T19:42:20;2620.00;;;2077.00;;
37169;SDS011;23062;13.952;100.608;2023-06-22T19:46:56;2735.00;;;2082.00;;
37169;SDS011;23062;13.952;100.608;2023-06-22T19:51:34;2796.00;;;2098.00;;
37169;SDS011;23062;13.952;100.608;2023-06-22T19:56:09;2739.00;;;2103.00;;
37169;SDS011;23062;13.952;100.608;2023-06-22T20:00:43;2673.00;;;2091.00;;
37169;SDS011;23062;13.952;100.608;2023-06-22T20:05:19;2767.00;;;2081.00;;
37169;SDS011;23062;13.952;100.608;2023-06-22T20:09:45;2783.00;;;2095.00;;
37169;SDS011;23062;13.952;100.608;2023-06-22T20:14:19;2738.00;;;2109.00;;
37169;SDS011;23062;13.952;100.608;2023-06-22T20:23:35;2774.00;;;2109.00;;
37169;SDS011;23062;13.952;100.608;2023-06-22T20:28:10;2776.00;;;2077.00;;
37169;SDS011;23062;13.952;100.608;2023-06-22T20:37:20;2571.00;;;2050.00;;
37169;SDS011;23062;13.952;100.608;2023-06-22T20:41:56;2591.00;;;2059.00;;
37169;SDS011;23062;13.952;100.608;2023-06-22T20:46:23;2585.00;;;2030.00;;
37169;SDS011;23062;13.952;100.608;2023-06-22T20:50:52;2606.00;;;2023.00;;
37169;SDS011;23062;13.952;100.608;2023-06-22T20:55:20;2609.00;;;2003.00;;
37169;SDS011;23062;13.952;100.608;2023-06-22T20:59:56;2597.00;;;2030.00;;
37169;SDS011;23062;13.952;100.608;2023-06-22T21:04:23;2581.00;;;2053.00;;
37169;SDS011;23062;13.952;100.608;2023-06-22T21:08:49;2617.00;;;2063.00;;
37169;SDS011;23062;13.952;100.608;2023-06-22T21:13:16;2646.00;;;2065.00;;
37169;SDS011;23062;13.952;100.608;2023-06-22T21:17:46;2755.00;;;2060.00;;
37169;SDS011;23062;13.952;100.608;2023-06-22T21:22:19;2752.00;;;2065.00;;
37169;SDS011;23062;13.952;100.608;2023-06-22T21:26:55;2757.00;;;2075.00;;
37169;SDS011;23062;13.952;100.608;2023-06-22T21:31:25;2681.00;;;2068.00;;
37169;SDS011;23062;13.952;100.608;2023-06-22T21:35:53;2681.00;;;2063.00;;
37169;SDS011;23062;13.952;100.608;2023-06-22T21:40:29;2719.00;;;2059.00;;
37169;SDS011;23062;13.952;100.608;2023-06-22T21:44:56;2583.00;;;2064.00;;
37169;SDS011;23062;13.952;100.608;2023-06-22T21:49:30;2739.00;;;2051.00;;
37169;SDS011;23062;13.952;100.608;2023-06-22T21:53:57;2545.00;;;2044.00;;
37169;SDS011;23062;13.952;100.608;2023-06-22T21:58:31;2570.00;;;2049.00;;
37169;SDS011;23062;13.952;100.608;2023-06-22T22:02:58;2747.00;;;2054.00;;
37169;SDS011;23062;13.952;100.608;2023-06-22T22:07:24;2576.00;;;2057.00;;
37169;SDS011;23062;13.952;100.608;2023-06-22T22:11:53;2459.00;;;1838.00;;
37169;SDS011;23062;13.952;100.608;2023-06-22T22:16:19;11.00;;;8.00;;
37169;SDS011;23062;13.952;100.608;2023-06-22T22:20:53;11.00;;;8.00;;
37169;SDS011;23062;13.952;100.608;2023-06-22T22:25:20;10.00;;;7.00;;
37169;SDS011;23062;13.952;100.608;2023-06-22T22:29:58;21.00;;;14.00;;
37169;SDS011;23062;13.952;100.608;2023-06-22T22:34:31;9.00;;;6.00;;
37169;SDS011;23062;13.952;100.608;2023-06-22T22:38:57;9.00;;;6.00;;
37169;SDS011;23062;13.952;100.608;2023-06-22T22:43:23;9.00;;;6.00;;
37169;SDS011;23062;13.952;100.608;2023-06-22T22:47:50;9.00;;;6.00;;
37169;SDS011;23062;13.952;100.608;2023-06-22T22:52:16;9.00;;;6.00;;
37169;SDS011;23062;13.952;100.608;2023-06-22T22:56:44;9.00;;;6.00;;
37169;SDS011;23062;13.952;100.608;2023-06-22T23:01:10;7.00;;;5.00;;
37169;SDS011;23062;13.952;100.608;2023-06-22T23:05:37;9.00;;;7.00;;
37169;SDS011;23062;13.952;100.608;2023-06-22T23:10:02;9.00;;;6.00;;
37169;SDS011;23062;13.952;100.608;2023-06-22T23:14:30;9.00;;;6.00;;
37169;SDS011;23062;13.952;100.608;2023-06-22T23:19:04;9.00;;;6.00;;
37169;SDS011;23062;13.952;100.608;2023-06-22T23:23:33;8.00;;;5.00;;
37169;SDS011;23062;13.952;100.608;2023-06-22T23:28:00;10.00;;;7.00;;
37169;SDS011;23062;13.952;100.608;2023-06-22T23:32:32;7.00;;;5.00;;
37169;SDS011;23062;13.952;100.608;2023-06-22T23:37:07;8.00;;;6.00;;
37169;SDS011;23062;13.952;100.608;2023-06-22T23:41:33;10.00;;;7.00;;
37169;SDS011;23062;13.952;100.608;2023-06-22T23:46:06;9.00;;;6.00;;
37169;SDS011;23062;13.952;100.608;2023-06-22T23:50:38;7.00;;;5.00;;
37169;SDS011;23062;13.952;100.608;2023-06-22T23:55:12;10.00;;;7.00;;
37169;SDS011;23062;13.952;100.608;2023-06-22T23:59:39;8.00;;;6.00;;
